sensor_id;sensor_type;location;lat;lon;timestamp;pressure;altitude;pressure_sealevel;temperature;humidity
38466;BME280;24244;51.950;5.902;2022-09-12T00:00:20;101669.78;;;16.32;78.31
38466;BME280;24244;51.950;5.902;2022-09-12T00:02:51;101664.41;;;16.32;78.32
38466;BME280;24244;51.950;5.902;2022-09-12T00:05:16;101665.44;;;16.31;78.34
38466;BME280;24244;51.950;5.902;2022-09-12T00:07:42;101670.16;;;16.29;78.31
38466;BME280;24244;51.950;5.902;2022-09-12T00:10:07;101668.50;;;16.28;78.38
38466;BME280;24244;51.950;5.902;2022-09-12T00:12:33;101662.53;;;16.26;78.54
38466;BME280;24244;51.950;5.902;2022-09-12T00:14:59;101659.03;;;16.25;78.66
38466;BME280;24244;51.950;5.902;2022-09-12T00:17:24;101655.72;;;16.23;78.39
38466;BME280;24244;51.950;5.902;2022-09-12T00:19:51;101654.25;;;16.21;78.30
38466;BME280;24244;51.950;5.902;2022-09-12T00:22:17;101654.66;;;16.18;78.45
38466;BME280;24244;51.950;5.902;2022-09-12T00:24:43;101661.06;;;16.17;78.35
38466;BME280;24244;51.950;5.902;2022-09-12T00:27:08;101651.75;;;16.13;78.38
38466;BME280;24244;51.950;5.902;2022-09-12T00:29:33;101650.94;;;16.12;78.61
38466;BME280;24244;51.950;5.902;2022-09-12T00:31:59;101646.59;;;16.11;78.63
38466;BME280;24244;51.950;5.902;2022-09-12T00:34:25;101641.63;;;16.08;78.52
38466;BME280;24244;51.950;5.902;2022-09-12T00:36:51;101649.84;;;16.06;78.59
38466;BME280;24244;51.950;5.902;2022-09-12T00:39:17;101647.59;;;16.03;78.52
38466;BME280;24244;51.950;5.902;2022-09-12T00:41:43;101639.94;;;16.00;78.66
38466;BME280;24244;51.950;5.902;2022-09-12T00:44:44;101641.78;;;16.00;78.83
38466;BME280;24244;51.950;5.902;2022-09-12T00:47:14;101645.09;;;15.95;78.74
38466;BME280;24244;51.950;5.902;2022-09-12T00:49:43;101633.91;;;15.92;78.50
38466;BME280;24244;51.950;5.902;2022-09-12T00:52:14;101634.13;;;15.90;78.65
38466;BME280;24244;51.950;5.902;2022-09-12T00:54:43;101632.47;;;15.89;78.69
38466;BME280;24244;51.950;5.902;2022-09-12T00:57:12;101634.53;;;15.87;78.97
38466;BME280;24244;51.950;5.902;2022-09-12T00:59:42;101632.03;;;15.86;78.77
38466;BME280;24244;51.950;5.902;2022-09-12T01:02:10;101626.06;;;15.84;78.63
38466;BME280;24244;51.950;5.902;2022-09-12T01:04:38;101631.63;;;15.82;78.78
38466;BME280;24244;51.950;5.902;2022-09-12T01:07:05;101627.28;;;15.81;78.72
38466;BME280;24244;51.950;5.902;2022-09-12T01:09:34;101617.56;;;15.80;78.95
38466;BME280;24244;51.950;5.902;2022-09-12T01:12:01;101620.66;;;15.77;78.93
38466;BME280;24244;51.950;5.902;2022-09-12T01:14:27;101618.19;;;15.76;78.90
38466;BME280;24244;51.950;5.902;2022-09-12T01:16:54;101617.56;;;15.74;78.84
38466;BME280;24244;51.950;5.902;2022-09-12T01:19:34;101620.63;;;15.71;78.92
38466;BME280;24244;51.950;5.902;2022-09-12T01:22:22;101619.81;;;15.70;78.84
38466;BME280;24244;51.950;5.902;2022-09-12T01:25:05;101623.28;;;15.71;78.80
38466;BME280;24244;51.950;5.902;2022-09-12T01:27:53;101608.47;;;15.68;78.76
38466;BME280;24244;51.950;5.902;2022-09-12T01:30:46;101611.31;;;15.66;78.98
38466;BME280;24244;51.950;5.902;2022-09-12T01:33:27;101603.47;;;15.65;79.01
38466;BME280;24244;51.950;5.902;2022-09-12T01:36:18;101594.00;;;15.62;79.03
38466;BME280;24244;51.950;5.902;2022-09-12T01:38:52;101597.25;;;15.58;78.88
38466;BME280;24244;51.950;5.902;2022-09-12T01:41:25;101598.28;;;15.57;78.91
38466;BME280;24244;51.950;5.902;2022-09-12T01:43:59;101587.97;;;15.54;78.95
38466;BME280;24244;51.950;5.902;2022-09-12T01:46:32;101583.63;;;15.53;79.05
38466;BME280;24244;51.950;5.902;2022-09-12T01:49:01;101580.97;;;15.53;78.95
38466;BME280;24244;51.950;5.902;2022-09-12T01:51:34;101573.06;;;15.51;79.33
38466;BME280;24244;51.950;5.902;2022-09-12T01:54:07;101569.38;;;15.52;79.22
38466;BME280;24244;51.950;5.902;2022-09-12T01:56:35;101576.44;;;15.53;79.61
38466;BME280;24244;51.950;5.902;2022-09-12T01:59:07;101579.94;;;15.54;79.45
38466;BME280;24244;51.950;5.902;2022-09-12T02:01:38;101570.88;;;15.55;79.40
38466;BME280;24244;51.950;5.902;2022-09-12T02:04:09;101574.16;;;15.57;79.53
38466;BME280;24244;51.950;5.902;2022-09-12T02:06:40;101569.63;;;15.57;79.48
38466;BME280;24244;51.950;5.902;2022-09-12T02:09:11;101575.63;;;15.59;79.51
38466;BME280;24244;51.950;5.902;2022-09-12T02:11:41;101562.41;;;15.58;79.46
38466;BME280;24244;51.950;5.902;2022-09-12T02:14:10;101556.47;;;15.56;79.40
38466;BME280;24244;51.950;5.902;2022-09-12T02:16:41;101561.00;;;15.55;79.76
38466;BME280;24244;51.950;5.902;2022-09-12T02:19:09;101562.00;;;15.54;79.88
38466;BME280;24244;51.950;5.902;2022-09-12T02:21:39;101557.66;;;15.53;79.82
38466;BME280;24244;51.950;5.902;2022-09-12T02:24:11;101561.34;;;15.52;79.47
38466;BME280;24244;51.950;5.902;2022-09-12T02:26:43;101555.16;;;15.52;79.67
38466;BME280;24244;51.950;5.902;2022-09-12T02:29:12;101557.84;;;15.52;79.44
38466;BME280;24244;51.950;5.902;2022-09-12T02:31:42;101562.56;;;15.50;79.48
38466;BME280;24244;51.950;5.902;2022-09-12T02:34:19;101559.28;;;15.48;79.45
38466;BME280;24244;51.950;5.902;2022-09-12T02:36:51;101561.31;;;15.46;79.59
38466;BME280;24244;51.950;5.902;2022-09-12T02:39:19;101552.63;;;15.44;79.61
38466;BME280;24244;51.950;5.902;2022-09-12T02:41:46;101555.50;;;15.42;79.75
38466;BME280;24244;51.950;5.902;2022-09-12T02:44:12;101553.88;;;15.41;79.72
38466;BME280;24244;51.950;5.902;2022-09-12T02:46:41;101561.28;;;15.39;79.62
38466;BME280;24244;51.950;5.902;2022-09-12T02:49:08;101560.44;;;15.39;79.63
38466;BME280;24244;51.950;5.902;2022-09-12T02:51:34;101548.06;;;15.38;79.90
38466;BME280;24244;51.950;5.902;2022-09-12T02:54:00;101543.72;;;15.37;79.48
38466;BME280;24244;51.950;5.902;2022-09-12T02:56:29;101546.59;;;15.35;79.70
38466;BME280;24244;51.950;5.902;2022-09-12T02:58:57;101547.66;;;15.34;79.83
38466;BME280;24244;51.950;5.902;2022-09-12T03:01:30;101544.16;;;15.34;79.97
38466;BME280;24244;51.950;5.902;2022-09-12T03:04:18;101541.66;;;15.32;79.67
38466;BME280;24244;51.950;5.902;2022-09-12T03:06:56;101537.53;;;15.29;79.69
38466;BME280;24244;51.950;5.902;2022-09-12T03:09:29;101537.72;;;15.28;79.76
38466;BME280;24244;51.950;5.902;2022-09-12T03:12:07;101538.13;;;15.25;79.87
38466;BME280;24244;51.950;5.902;2022-09-12T03:14:44;101531.09;;;15.24;79.89
38466;BME280;24244;51.950;5.902;2022-09-12T03:17:19;101538.31;;;15.23;79.85
38466;BME280;24244;51.950;5.902;2022-09-12T03:19:57;101529.44;;;15.23;79.52
38466;BME280;24244;51.950;5.902;2022-09-12T03:22:30;101526.13;;;15.21;79.82
38466;BME280;24244;51.950;5.902;2022-09-12T03:25:03;101534.38;;;15.19;79.65
38466;BME280;24244;51.950;5.902;2022-09-12T03:27:33;101527.56;;;15.17;79.80
38466;BME280;24244;51.950;5.902;2022-09-12T03:30:00;101532.09;;;15.16;80.08
38466;BME280;24244;51.950;5.902;2022-09-12T03:32:41;101527.56;;;15.17;80.10
38466;BME280;24244;51.950;5.902;2022-09-12T03:35:09;101521.38;;;15.16;79.95
38466;BME280;24244;51.950;5.902;2022-09-12T03:37:35;101516.22;;;15.15;79.90
38466;BME280;24244;51.950;5.902;2022-09-12T03:40:00;101523.41;;;15.14;79.93
38466;BME280;24244;51.950;5.902;2022-09-12T03:42:26;101517.47;;;15.12;79.98
38466;BME280;24244;51.950;5.902;2022-09-12T03:44:51;101516.00;;;15.10;79.82
38466;BME280;24244;51.950;5.902;2022-09-12T03:47:17;101517.84;;;15.09;80.08
38466;BME280;24244;51.950;5.902;2022-09-12T03:49:42;101519.50;;;15.10;80.18
38466;BME280;24244;51.950;5.902;2022-09-12T03:52:09;101516.00;;;15.10;80.15
38466;BME280;24244;51.950;5.902;2022-09-12T03:54:35;101511.47;;;15.10;80.00
38466;BME280;24244;51.950;5.902;2022-09-12T03:57:00;101506.09;;;15.10;80.05
38466;BME280;24244;51.950;5.902;2022-09-12T03:59:26;101516.63;;;15.12;80.39
38466;BME280;24244;51.950;5.902;2022-09-12T04:01:51;101519.09;;;15.13;80.42
38466;BME280;24244;51.950;5.902;2022-09-12T04:04:17;101516.41;;;15.13;80.29
38466;BME280;24244;51.950;5.902;2022-09-12T04:06:42;101518.28;;;15.13;80.43
38466;BME280;24244;51.950;5.902;2022-09-12T04:09:09;101518.91;;;15.15;80.80
38466;BME280;24244;51.950;5.902;2022-09-12T04:11:35;101511.06;;;15.13;80.58
38466;BME280;24244;51.950;5.902;2022-09-12T04:14:00;101504.06;;;15.12;80.66
38466;BME280;24244;51.950;5.902;2022-09-12T04:16:26;101508.38;;;15.13;80.86
38466;BME280;24244;51.950;5.902;2022-09-12T04:18:53;101498.50;;;15.14;80.77
38466;BME280;24244;51.950;5.902;2022-09-12T04:21:19;101500.97;;;15.15;81.00
38466;BME280;24244;51.950;5.902;2022-09-12T04:23:46;101496.44;;;15.16;80.80
38466;BME280;24244;51.950;5.902;2022-09-12T04:26:14;101498.09;;;15.17;80.92
38466;BME280;24244;51.950;5.902;2022-09-12T04:28:41;101498.94;;;15.17;80.92
38466;BME280;24244;51.950;5.902;2022-09-12T04:31:08;101491.72;;;15.18;80.95
38466;BME280;24244;51.950;5.902;2022-09-12T04:33:34;101492.56;;;15.18;80.90
38466;BME280;24244;51.950;5.902;2022-09-12T04:36:05;101482.88;;;15.17;81.04
38466;BME280;24244;51.950;5.902;2022-09-12T04:38:31;101495.03;;;15.20;80.90
38466;BME280;24244;51.950;5.902;2022-09-12T04:40:56;101488.63;;;15.21;81.03
38466;BME280;24244;51.950;5.902;2022-09-12T04:43:23;101494.81;;;15.21;81.12
38466;BME280;24244;51.950;5.902;2022-09-12T04:45:49;101500.00;;;15.23;81.01
38466;BME280;24244;51.950;5.902;2022-09-12T04:48:14;101505.97;;;15.25;81.33
38466;BME280;24244;51.950;5.902;2022-09-12T04:50:40;101499.38;;;15.27;81.19
38466;BME280;24244;51.950;5.902;2022-09-12T04:53:05;101492.41;;;15.26;81.45
38466;BME280;24244;51.950;5.902;2022-09-12T04:55:33;101498.59;;;15.27;81.36
38466;BME280;24244;51.950;5.902;2022-09-12T04:58:00;101501.03;;;15.28;81.33
38466;BME280;24244;51.950;5.902;2022-09-12T05:00:27;101489.94;;;15.32;81.55
38466;BME280;24244;51.950;5.902;2022-09-12T05:02:53;101485.59;;;15.31;81.54
38466;BME280;24244;51.950;5.902;2022-09-12T05:05:18;101485.41;;;15.32;81.31
38466;BME280;24244;51.950;5.902;2022-09-12T05:07:44;101486.25;;;15.33;81.52
38466;BME280;24244;51.950;5.902;2022-09-12T05:10:09;101482.53;;;15.34;81.60
38466;BME280;24244;51.950;5.902;2022-09-12T05:12:35;101488.50;;;15.36;81.53
38466;BME280;24244;51.950;5.902;2022-09-12T05:15:01;101485.63;;;15.37;81.44
38466;BME280;24244;51.950;5.902;2022-09-12T05:17:29;101485.44;;;15.39;81.57
38466;BME280;24244;51.950;5.902;2022-09-12T05:19:54;101492.44;;;15.40;81.65
38466;BME280;24244;51.950;5.902;2022-09-12T05:22:20;101496.56;;;15.42;81.91
38466;BME280;24244;51.950;5.902;2022-09-12T05:24:45;101498.03;;;15.45;81.58
38466;BME280;24244;51.950;5.902;2022-09-12T05:27:12;101502.38;;;15.46;81.75
38466;BME280;24244;51.950;5.902;2022-09-12T05:29:38;101494.97;;;15.48;81.95
38466;BME280;24244;51.950;5.902;2022-09-12T05:32:03;101499.06;;;15.50;81.88
38466;BME280;24244;51.950;5.902;2022-09-12T05:34:30;101493.53;;;15.52;82.03
38466;BME280;24244;51.950;5.902;2022-09-12T05:36:56;101491.50;;;15.54;81.76
38466;BME280;24244;51.950;5.902;2022-09-12T05:39:21;101488.63;;;15.55;81.89
38466;BME280;24244;51.950;5.902;2022-09-12T05:41:47;101490.06;;;15.58;82.09
38466;BME280;24244;51.950;5.902;2022-09-12T05:44:13;101490.91;;;15.58;81.89
38466;BME280;24244;51.950;5.902;2022-09-12T05:46:40;101492.56;;;15.59;81.96
38466;BME280;24244;51.950;5.902;2022-09-12T05:49:08;101489.69;;;15.61;82.05
38466;BME280;24244;51.950;5.902;2022-09-12T05:51:37;101489.25;;;15.64;82.25
38466;BME280;24244;51.950;5.902;2022-09-12T05:54:05;101488.22;;;15.65;82.26
38466;BME280;24244;51.950;5.902;2022-09-12T05:56:36;101490.53;;;15.68;82.34
38466;BME280;24244;51.950;5.902;2022-09-12T05:59:05;101495.47;;;15.71;82.04
38466;BME280;24244;51.950;5.902;2022-09-12T06:01:33;101496.94;;;15.74;82.10
38466;BME280;24244;51.950;5.902;2022-09-12T06:04:00;101492.38;;;15.74;81.86
38466;BME280;24244;51.950;5.902;2022-09-12T06:06:27;101492.00;;;15.77;82.28
38466;BME280;24244;51.950;5.902;2022-09-12T06:08:57;101494.25;;;15.80;82.13
38466;BME280;24244;51.950;5.902;2022-09-12T06:11:25;101487.88;;;15.81;82.15
38466;BME280;24244;51.950;5.902;2022-09-12T06:13:51;101495.91;;;15.81;82.28
38466;BME280;24244;51.950;5.902;2022-09-12T06:16:19;101487.69;;;15.83;82.50
38466;BME280;24244;51.950;5.902;2022-09-12T06:18:47;101500.88;;;15.84;82.32
38466;BME280;24244;51.950;5.902;2022-09-12T06:21:13;101502.50;;;15.85;82.47
38466;BME280;24244;51.950;5.902;2022-09-12T06:23:39;101496.13;;;15.86;82.27
38466;BME280;24244;51.950;5.902;2022-09-12T06:26:08;101498.63;;;15.88;82.78
38466;BME280;24244;51.950;5.902;2022-09-12T06:28:36;101504.41;;;15.91;82.76
38466;BME280;24244;51.950;5.902;2022-09-12T06:31:02;101501.31;;;15.94;82.74
38466;BME280;24244;51.950;5.902;2022-09-12T06:33:29;101498.22;;;15.97;82.96
38466;BME280;24244;51.950;5.902;2022-09-12T06:36:01;101496.38;;;15.98;82.68
38466;BME280;24244;51.950;5.902;2022-09-12T06:38:27;101492.63;;;15.99;82.81
38466;BME280;24244;51.950;5.902;2022-09-12T06:40:52;101498.00;;;15.99;82.88
38466;BME280;24244;51.950;5.902;2022-09-12T06:43:20;101496.16;;;15.99;82.84
38466;BME280;24244;51.950;5.902;2022-09-12T06:45:48;101494.28;;;16.00;83.13
38466;BME280;24244;51.950;5.902;2022-09-12T06:48:13;101488.94;;;16.00;83.03
38466;BME280;24244;51.950;5.902;2022-09-12T06:50:39;101493.28;;;16.01;82.99
38466;BME280;24244;51.950;5.902;2022-09-12T06:53:04;101494.09;;;16.01;83.11
38466;BME280;24244;51.950;5.902;2022-09-12T06:55:29;101500.09;;;16.03;82.88
38466;BME280;24244;51.950;5.902;2022-09-12T06:57:55;101498.25;;;16.04;83.02
38466;BME280;24244;51.950;5.902;2022-09-12T07:00:22;101502.34;;;16.06;82.86
38466;BME280;24244;51.950;5.902;2022-09-12T07:02:47;101496.78;;;16.08;82.99
38466;BME280;24244;51.950;5.902;2022-09-12T07:05:13;101497.22;;;16.12;83.02
38466;BME280;24244;51.950;5.902;2022-09-12T07:07:39;101499.47;;;16.15;83.13
38466;BME280;24244;51.950;5.902;2022-09-12T07:10:05;101491.84;;;16.18;83.00
38466;BME280;24244;51.950;5.902;2022-09-12T07:12:31;101491.44;;;16.21;83.03
38466;BME280;24244;51.950;5.902;2022-09-12T07:14:56;101491.88;;;16.25;82.87
38466;BME280;24244;51.950;5.902;2022-09-12T07:17:23;101484.22;;;16.28;82.90
38466;BME280;24244;51.950;5.902;2022-09-12T07:19:48;101488.16;;;16.32;82.81
38466;BME280;24244;51.950;5.902;2022-09-12T07:22:14;101481.53;;;16.35;82.55
38466;BME280;24244;51.950;5.902;2022-09-12T07:24:39;101480.31;;;16.37;82.75
38466;BME280;24244;51.950;5.902;2022-09-12T07:27:05;101476.59;;;16.38;82.82
38466;BME280;24244;51.950;5.902;2022-09-12T07:29:31;101475.13;;;16.42;82.74
38466;BME280;24244;51.950;5.902;2022-09-12T07:31:56;101474.94;;;16.44;82.71
38466;BME280;24244;51.950;5.902;2022-09-12T07:34:23;101470.19;;;16.46;82.64
38466;BME280;24244;51.950;5.902;2022-09-12T07:36:49;101474.28;;;16.49;82.85
38466;BME280;24244;51.950;5.902;2022-09-12T07:39:14;101474.72;;;16.52;82.70
38466;BME280;24244;51.950;5.902;2022-09-12T07:41:40;101469.75;;;16.56;82.76
38466;BME280;24244;51.950;5.902;2022-09-12T07:44:06;101485.28;;;16.60;82.59
38466;BME280;24244;51.950;5.902;2022-09-12T07:46:31;101483.81;;;16.64;82.21
38466;BME280;24244;51.950;5.902;2022-09-12T07:48:59;101479.69;;;16.68;82.27
38466;BME280;24244;51.950;5.902;2022-09-12T07:51:27;101484.44;;;16.73;82.25
38466;BME280;24244;51.950;5.902;2022-09-12T07:53:53;101481.34;;;16.76;82.06
38466;BME280;24244;51.950;5.902;2022-09-12T07:56:20;101490.63;;;16.80;82.01
38466;BME280;24244;51.950;5.902;2022-09-12T07:58:46;101488.34;;;16.83;81.88
38466;BME280;24244;51.950;5.902;2022-09-12T08:01:14;101493.09;;;16.88;81.72
38466;BME280;24244;51.950;5.902;2022-09-12T08:03:40;101488.94;;;16.92;81.64
38466;BME280;24244;51.950;5.902;2022-09-12T08:06:06;101482.34;;;16.95;81.66
38466;BME280;24244;51.950;5.902;2022-09-12T08:08:34;101483.53;;;16.99;81.53
38466;BME280;24244;51.950;5.902;2022-09-12T08:11:02;101479.41;;;17.03;81.29
38466;BME280;24244;51.950;5.902;2022-09-12T08:13:30;101484.34;;;17.06;81.16
38466;BME280;24244;51.950;5.902;2022-09-12T08:15:57;101482.91;;;17.10;81.00
38466;BME280;24244;51.950;5.902;2022-09-12T08:18:24;101481.66;;;17.12;80.86
38466;BME280;24244;51.950;5.902;2022-09-12T08:20:55;101490.94;;;17.16;80.67
38466;BME280;24244;51.950;5.902;2022-09-12T08:23:21;101485.97;;;17.20;80.86
38466;BME280;24244;51.950;5.902;2022-09-12T08:25:49;101488.25;;;17.23;80.47
38466;BME280;24244;51.950;5.902;2022-09-12T08:28:14;101490.28;;;17.28;80.13
38466;BME280;24244;51.950;5.902;2022-09-12T08:30:40;101484.50;;;17.31;80.48
38466;BME280;24244;51.950;5.902;2022-09-12T08:33:05;101484.66;;;17.36;80.76
38466;BME280;24244;51.950;5.902;2022-09-12T08:35:32;101487.78;;;17.39;80.83
38466;BME280;24244;51.950;5.902;2022-09-12T08:37:57;101492.50;;;17.44;80.68
38466;BME280;24244;51.950;5.902;2022-09-12T08:40:23;101492.09;;;17.47;80.69
38466;BME280;24244;51.950;5.902;2022-09-12T08:42:57;101480.69;;;17.51;80.59
38466;BME280;24244;51.950;5.902;2022-09-12T08:45:31;101489.53;;;17.58;80.19
38466;BME280;24244;51.950;5.902;2022-09-12T08:48:02;101481.88;;;17.62;80.13
38466;BME280;24244;51.950;5.902;2022-09-12T08:50:29;101485.81;;;17.66;79.57
38466;BME280;24244;51.950;5.902;2022-09-12T08:52:56;101487.84;;;17.71;79.54
38466;BME280;24244;51.950;5.902;2022-09-12T08:55:30;101491.53;;;17.76;79.47
38466;BME280;24244;51.950;5.902;2022-09-12T08:57:58;101491.94;;;17.80;79.04
38466;BME280;24244;51.950;5.902;2022-09-12T09:00:30;101489.41;;;17.85;79.10
38466;BME280;24244;51.950;5.902;2022-09-12T09:03:14;101479.66;;;17.90;79.54
38466;BME280;24244;51.950;5.902;2022-09-12T09:05:49;101483.34;;;17.96;79.60
38466;BME280;24244;51.950;5.902;2022-09-12T09:08:28;101487.03;;;18.02;79.37
38466;BME280;24244;51.950;5.902;2022-09-12T09:10:59;101481.00;;;18.06;79.18
38466;BME280;24244;51.950;5.902;2022-09-12T09:13:52;101483.63;;;18.13;79.06
38466;BME280;24244;51.950;5.902;2022-09-12T09:16:43;101479.28;;;18.18;79.09
38466;BME280;24244;51.950;5.902;2022-09-12T09:19:12;101478.41;;;18.24;78.42
38466;BME280;24244;51.950;5.902;2022-09-12T09:21:42;101472.34;;;18.29;78.21
38466;BME280;24244;51.950;5.902;2022-09-12T09:24:11;101473.13;;;18.36;78.08
38466;BME280;24244;51.950;5.902;2022-09-12T09:26:41;101470.38;;;18.43;78.06
38466;BME280;24244;51.950;5.902;2022-09-12T09:29:14;101463.25;;;18.48;77.85
38466;BME280;24244;51.950;5.902;2022-09-12T09:31:41;101465.91;;;18.55;77.90
38466;BME280;24244;51.950;5.902;2022-09-12T09:34:12;101460.25;;;18.63;77.99
38466;BME280;24244;51.950;5.902;2022-09-12T09:36:48;101456.47;;;18.70;78.16
38466;BME280;24244;51.950;5.902;2022-09-12T09:39:20;101452.44;;;18.80;78.37
38466;BME280;24244;51.950;5.902;2022-09-12T09:41:54;101444.88;;;18.88;78.08
38466;BME280;24244;51.950;5.902;2022-09-12T09:44:27;101442.72;;;18.97;77.90
38466;BME280;24244;51.950;5.902;2022-09-12T09:46:54;101443.47;;;19.04;77.76
38466;BME280;24244;51.950;5.902;2022-09-12T09:49:22;101438.00;;;19.10;77.94
38466;BME280;24244;51.950;5.902;2022-09-12T09:51:48;101439.78;;;19.16;77.36
38466;BME280;24244;51.950;5.902;2022-09-12T09:54:18;101446.75;;;19.24;77.25
38466;BME280;24244;51.950;5.902;2022-09-12T09:56:45;101444.53;;;19.33;77.10
38466;BME280;24244;51.950;5.902;2022-09-12T09:59:14;101436.41;;;19.39;76.82
38466;BME280;24244;51.950;5.902;2022-09-12T10:01:46;101437.16;;;19.46;76.70
38466;BME280;24244;51.950;5.902;2022-09-12T10:04:20;101443.84;;;19.55;76.16
38466;BME280;24244;51.950;5.902;2022-09-12T10:06:46;101437.31;;;19.63;75.83
38466;BME280;24244;51.950;5.902;2022-09-12T10:09:20;101433.69;;;19.69;75.69
38466;BME280;24244;51.950;5.902;2022-09-12T10:11:48;101430.69;;;19.77;75.39
38466;BME280;24244;51.950;5.902;2022-09-12T10:14:30;101427.44;;;19.87;74.77
38466;BME280;24244;51.950;5.902;2022-09-12T10:16:57;101428.75;;;19.96;74.23
38466;BME280;24244;51.950;5.902;2022-09-12T10:19:33;101424.06;;;20.03;73.73
38466;BME280;24244;51.950;5.902;2022-09-12T10:22:00;101419.13;;;20.12;73.50
38466;BME280;24244;51.950;5.902;2022-09-12T10:24:29;101417.97;;;20.19;73.13
38466;BME280;24244;51.950;5.902;2022-09-12T10:27:06;101414.09;;;20.27;72.79
38466;BME280;24244;51.950;5.902;2022-09-12T10:29:37;101408.63;;;20.33;72.50
38466;BME280;24244;51.950;5.902;2022-09-12T10:32:06;101403.09;;;20.40;72.09
38466;BME280;24244;51.950;5.902;2022-09-12T10:34:34;101399.22;;;20.48;72.03
38466;BME280;24244;51.950;5.902;2022-09-12T10:37:04;101394.06;;;20.58;71.64
38466;BME280;24244;51.950;5.902;2022-09-12T10:39:30;101389.56;;;20.63;71.38
38466;BME280;24244;51.950;5.902;2022-09-12T10:41:57;101388.63;;;20.69;71.08
38466;BME280;24244;51.950;5.902;2022-09-12T10:44:24;101392.00;;;20.77;70.67
38466;BME280;24244;51.950;5.902;2022-09-12T10:46:50;101386.25;;;20.85;70.34
38466;BME280;24244;51.950;5.902;2022-09-12T10:49:33;101387.75;;;20.92;69.95
38466;BME280;24244;51.950;5.902;2022-09-12T10:52:15;101379.28;;;21.00;69.66
38466;BME280;24244;51.950;5.902;2022-09-12T10:54:41;101371.03;;;21.07;69.46
38466;BME280;24244;51.950;5.902;2022-09-12T11:00:09;101372.50;;;21.26;68.86
38466;BME280;24244;51.950;5.902;2022-09-12T11:02:50;101375.63;;;21.35;68.44
38466;BME280;24244;51.950;5.902;2022-09-12T11:05:25;101360.91;;;21.42;68.28
38466;BME280;24244;51.950;5.902;2022-09-12T11:07:59;101364.28;;;21.49;68.02
38466;BME280;24244;51.950;5.902;2022-09-12T11:10:36;101363.28;;;21.56;67.76
38466;BME280;24244;51.950;5.902;2022-09-12T11:13:15;101359.38;;;21.63;67.50
38466;BME280;24244;51.950;5.902;2022-09-12T11:15:57;101356.25;;;21.71;67.29
38466;BME280;24244;51.950;5.902;2022-09-12T11:18:54;101353.72;;;21.81;66.67
38466;BME280;24244;51.950;5.902;2022-09-12T11:21:37;101342.47;;;21.89;66.33
38466;BME280;24244;51.950;5.902;2022-09-12T11:27:21;101332.97;;;22.04;66.02
38466;BME280;24244;51.950;5.902;2022-09-12T11:29:54;101329.28;;;22.10;65.65
38466;BME280;24244;51.950;5.902;2022-09-12T11:32:36;101330.75;;;22.17;65.48
38466;BME280;24244;51.950;5.902;2022-09-12T11:35:15;101333.53;;;22.22;64.97
38466;BME280;24244;51.950;5.902;2022-09-12T11:37:54;101334.19;;;22.30;64.76
38466;BME280;24244;51.950;5.902;2022-09-12T11:40:32;101334.56;;;22.38;64.49
38466;BME280;24244;51.950;5.902;2022-09-12T11:43:09;101332.22;;;22.47;64.34
38466;BME280;24244;51.950;5.902;2022-09-12T11:45:40;101328.28;;;22.54;64.12
38466;BME280;24244;51.950;5.902;2022-09-12T11:48:11;101335.16;;;22.62;63.99
38466;BME280;24244;51.950;5.902;2022-09-12T11:50:38;101333.31;;;22.67;63.59
38466;BME280;24244;51.950;5.902;2022-09-12T11:53:11;101336.97;;;22.73;63.32
38466;BME280;24244;51.950;5.902;2022-09-12T11:55:49;101344.06;;;22.79;63.13
38466;BME280;24244;51.950;5.902;2022-09-12T11:58:21;101340.34;;;22.85;63.00
38466;BME280;24244;51.950;5.902;2022-09-12T12:00:50;101339.34;;;22.91;62.64
38466;BME280;24244;51.950;5.902;2022-09-12T12:03:23;101341.84;;;22.98;62.37
38466;BME280;24244;51.950;5.902;2022-09-12T12:05:54;101337.28;;;23.03;62.08
38466;BME280;24244;51.950;5.902;2022-09-12T12:08:24;101331.66;;;23.10;62.13
38466;BME280;24244;51.950;5.902;2022-09-12T12:10:54;101323.59;;;23.15;61.97
38466;BME280;24244;51.950;5.902;2022-09-12T12:13:24;101328.00;;;23.21;61.58
38466;BME280;24244;51.950;5.902;2022-09-12T12:15:54;101327.22;;;23.26;61.18
38466;BME280;24244;51.950;5.902;2022-09-12T12:18:23;101329.16;;;23.30;61.14
38466;BME280;24244;51.950;5.902;2022-09-12T12:20:49;101326.50;;;23.35;61.14
38466;BME280;24244;51.950;5.902;2022-09-12T12:23:24;101327.38;;;23.41;60.80
38466;BME280;24244;51.950;5.902;2022-09-12T12:25:52;101319.88;;;23.48;60.53
38466;BME280;24244;51.950;5.902;2022-09-12T12:28:56;101318.56;;;23.56;60.37
38466;BME280;24244;51.950;5.902;2022-09-12T12:31:22;101309.66;;;23.60;60.25
38466;BME280;24244;51.950;5.902;2022-09-12T12:36:40;101305.94;;;23.71;59.72
38466;BME280;24244;51.950;5.902;2022-09-12T12:48:45;101287.34;;;23.95;59.19
38466;BME280;24244;51.950;5.902;2022-09-12T12:51:22;101282.81;;;24.01;59.04
38466;BME280;24244;51.950;5.902;2022-09-12T12:53:51;101287.72;;;24.09;58.77
38466;BME280;24244;51.950;5.902;2022-09-12T12:56:33;101280.69;;;24.13;58.24
38466;BME280;24244;51.950;5.902;2022-09-12T12:59:03;101286.69;;;24.15;58.29
38466;BME280;24244;51.950;5.902;2022-09-12T13:01:36;101274.19;;;24.19;58.27
38466;BME280;24244;51.950;5.902;2022-09-12T13:04:12;101272.59;;;24.23;58.04
38466;BME280;24244;51.950;5.902;2022-09-12T13:06:40;101277.53;;;24.26;57.93
38466;BME280;24244;51.950;5.902;2022-09-12T13:09:07;101270.44;;;24.25;57.87
38466;BME280;24244;51.950;5.902;2022-09-12T13:11:35;101274.81;;;24.26;57.96
38466;BME280;24244;51.950;5.902;2022-09-12T13:14:05;101259.59;;;24.30;58.09
38466;BME280;24244;51.950;5.902;2022-09-12T13:16:36;101251.75;;;24.34;57.92
38466;BME280;24244;51.950;5.902;2022-09-12T13:19:04;101260.16;;;24.37;57.48
38466;BME280;24244;51.950;5.902;2022-09-12T13:21:31;101252.31;;;24.41;56.95